Time;durP1;ratioP1;P1;durP2;ratioP2;P2;SDS_P1;SDS_P2;PMS_P1;PMS_P2;Temp;Humidity;BMP_temperature;BMP_pressure;BME280_temperature;BME280_humidity;BME280_pressure;Samples;Min_cycle;Max_cycle;Signal;HPM_P1;HPM_P2
2022/01/07 00:00:55;;;;;;;38.37;17.73;;;4.40;99.90;;;;;;5057976;28;20228;-79
2022/01/07 00:03:22;;;;;;;35.57;16.33;;;4.30;99.90;;;;;;5070203;28;20314;-79
2022/01/07 00:05:51;;;;;;;35.37;17.13;;;4.30;99.90;;;;;;5050068;28;20233;-79
2022/01/07 00:08:17;;;;;;;39.70;17.17;;;4.40;99.90;;;;;;5053849;28;20218;-79
2022/01/07 00:10:44;;;;;;;37.80;17.77;;;4.30;99.90;;;;;;5064820;28;20220;-79
2022/01/07 00:13:12;;;;;;;36.43;17.77;;;4.30;99.90;;;;;;5054664;28;20233;-82
2022/01/07 00:15:39;;;;;;;44.30;18.87;;;4.30;99.90;;;;;;5069866;28;20218;-79
2022/01/07 00:18:07;;;;;;;41.73;18.63;;;4.30;99.90;;;;;;5056483;28;20230;-79
2022/01/07 00:20:34;;;;;;;37.43;17.80;;;4.30;99.90;;;;;;5069930;28;20984;-79
2022/01/07 00:23:02;;;;;;;39.87;18.83;;;4.40;99.90;;;;;;5054381;28;20233;-80
2022/01/07 00:25:29;;;;;;;39.20;18.37;;;4.30;99.90;;;;;;5058493;28;20249;-80
2022/01/07 00:27:56;;;;;;;45.10;20.37;;;4.30;99.90;;;;;;5047671;28;20218;-79
2022/01/07 00:30:23;;;;;;;42.07;19.37;;;4.30;99.90;;;;;;5048453;28;20239;-79
2022/01/07 00:32:52;;;;;;;40.70;19.17;;;4.30;99.90;;;;;;5057435;28;20215;-79
2022/01/07 00:35:20;;;;;;;42.43;18.67;;;4.30;99.90;;;;;;5060866;28;20222;-81
2022/01/07 00:37:47;;;;;;;40.07;18.17;;;4.30;99.90;;;;;;5072948;28;20230;-80
2022/01/07 00:40:18;;;;;;;36.23;18.23;;;4.30;99.90;;;;;;5044816;28;20539;-80
2022/01/07 00:42:46;;;;;;;44.20;20.17;;;4.40;99.90;;;;;;5047394;28;20231;-80
2022/01/07 00:45:13;;;;;;;37.07;18.77;;;4.30;99.90;;;;;;5063653;28;20215;-79
2022/01/07 00:47:40;;;;;;;39.93;19.03;;;4.30;99.90;;;;;;5068027;28;20219;-80
2022/01/07 00:50:08;;;;;;;42.47;18.77;;;4.30;99.90;;;;;;5072479;28;20223;-80
2022/01/07 00:52:35;;;;;;;36.33;17.80;;;4.30;99.90;;;;;;5067232;28;20215;-80
2022/01/07 00:55:02;;;;;;;38.03;18.40;;;4.30;99.90;;;;;;5042779;28;20223;-80
2022/01/07 00:57:30;;;;;;;39.47;18.37;;;4.30;99.90;;;;;;5050594;28;20262;-80
2022/01/07 00:59:57;;;;;;;40.67;18.67;;;4.30;99.90;;;;;;5070513;28;20218;-80
2022/01/07 01:02:24;;;;;;;39.23;17.83;;;4.30;99.90;;;;;;5075011;28;20241;-80
2022/01/07 01:04:50;;;;;;;35.53;18.23;;;4.30;99.90;;;;;;5046691;28;20225;-79
2022/01/07 01:07:17;;;;;;;33.57;18.10;;;4.30;99.90;;;;;;5059525;28;20234;-81
2022/01/07 01:09:44;;;;;;;42.10;18.10;;;4.30;99.90;;;;;;5048254;28;20247;-82
2022/01/07 01:12:12;;;;;;;36.70;18.20;;;4.20;99.90;;;;;;5050395;28;20233;-81
2022/01/07 01:14:40;;;;;;;40.17;18.97;;;4.20;99.90;;;;;;5059812;28;20215;-80
2022/01/07 01:17:07;;;;;;;37.53;18.07;;;4.20;99.90;;;;;;5068306;28;20297;-80
2022/01/07 01:19:35;;;;;;;35.70;18.40;;;4.20;99.90;;;;;;5048868;28;20305;-80
2022/01/07 01:22:02;;;;;;;38.63;18.07;;;4.20;99.90;;;;;;5048384;28;20322;-81
2022/01/07 01:24:28;;;;;;;47.63;18.60;;;4.20;99.90;;;;;;5042861;28;20646;-81
2022/01/07 01:26:55;;;;;;;38.57;18.80;;;4.20;99.90;;;;;;5068432;28;20264;-80
2022/01/07 01:29:22;;;;;;;36.87;17.70;;;4.20;99.90;;;;;;5072266;28;20225;-80
2022/01/07 01:31:50;;;;;;;38.10;18.37;;;4.20;99.90;;;;;;5038516;28;20232;-80
2022/01/07 01:34:17;;;;;;;41.73;18.03;;;4.20;99.90;;;;;;5066081;28;20225;-79
2022/01/07 01:36:45;;;;;;;37.13;17.27;;;4.20;99.90;;;;;;5063380;28;20794;-79
2022/01/07 01:39:12;;;;;;;34.90;18.10;;;4.20;99.90;;;;;;5071359;28;20225;-79
2022/01/07 01:41:39;;;;;;;40.37;17.47;;;4.20;99.90;;;;;;5043837;28;20226;-79
2022/01/07 01:44:06;;;;;;;35.57;16.63;;;4.20;99.90;;;;;;5066452;28;20227;-79
2022/01/07 01:46:33;;;;;;;41.80;18.97;;;4.20;99.90;;;;;;5046489;28;20265;-80
2022/01/07 01:49:01;;;;;;;37.53;16.73;;;4.30;99.90;;;;;;5040064;28;20719;-81
2022/01/07 01:51:28;;;;;;;31.87;15.77;;;4.30;99.90;;;;;;5060541;28;20773;-80
2022/01/07 01:53:55;;;;;;;34.83;16.33;;;4.30;99.90;;;;;;5046561;28;20219;-81
2022/01/07 01:56:22;;;;;;;37.17;15.87;;;4.40;99.90;;;;;;5040155;28;20226;-80
2022/01/07 01:58:49;;;;;;;40.73;16.73;;;4.40;99.90;;;;;;5070174;28;21201;-79
2022/01/07 02:01:15;;;;;;;34.17;16.17;;;4.40;99.90;;;;;;5057807;28;20228;-79
2022/01/07 02:03:43;;;;;;;36.43;15.03;;;4.40;99.90;;;;;;5062822;28;20226;-79
2022/01/07 02:06:11;;;;;;;28.43;14.50;;;4.40;99.90;;;;;;5034382;28;20229;-79
2022/01/07 02:08:39;;;;;;;27.87;14.20;;;4.40;99.90;;;;;;5060496;28;20252;-78
2022/01/07 02:11:06;;;;;;;26.57;14.43;;;4.40;99.90;;;;;;5059214;28;20247;-79
2022/01/07 02:13:33;;;;;;;31.90;14.57;;;4.40;99.90;;;;;;5040079;28;20229;-79
2022/01/07 02:16:00;;;;;;;31.47;15.03;;;4.50;99.90;;;;;;5045405;28;20214;-78
2022/01/07 02:18:26;;;;;;;35.23;15.33;;;4.40;99.90;;;;;;5068112;28;20227;-81
2022/01/07 02:20:54;;;;;;;27.93;13.53;;;4.50;99.90;;;;;;5040254;28;20220;-80
2022/01/07 02:23:21;;;;;;;30.10;12.60;;;4.50;99.90;;;;;;5078465;28;20298;-79
2022/01/07 02:25:49;;;;;;;30.23;14.03;;;4.50;99.90;;;;;;5068377;28;20262;-79
2022/01/07 02:28:16;;;;;;;25.73;12.70;;;4.50;99.90;;;;;;5068104;28;20222;-79
2022/01/07 02:30:43;;;;;;;28.80;13.83;;;4.50;99.90;;;;;;5064932;28;20250;-78
2022/01/07 02:33:10;;;;;;;20.27;11.40;;;4.60;99.90;;;;;;5045868;28;20310;-78
2022/01/07 02:35:38;;;;;;;26.27;11.47;;;4.60;99.90;;;;;;5051960;28;20231;-79
2022/01/07 02:38:06;;;;;;;28.33;11.50;;;4.60;99.90;;;;;;5073926;28;20793;-79
2022/01/07 02:40:34;;;;;;;25.30;11.13;;;4.60;99.90;;;;;;5047427;28;20248;-79
2022/01/07 02:43:01;;;;;;;22.40;11.87;;;4.60;99.90;;;;;;5063497;28;20270;-78
2022/01/07 02:45:27;;;;;;;21.63;11.07;;;4.60;99.90;;;;;;5049123;28;20318;-78
2022/01/07 02:47:55;;;;;;;25.53;11.27;;;4.60;99.90;;;;;;5076775;28;20783;-78
2022/01/07 02:50:24;;;;;;;27.83;12.07;;;4.70;99.90;;;;;;5055703;28;20228;-79
2022/01/07 02:52:52;;;;;;;26.67;10.80;;;4.60;99.90;;;;;;5060308;28;20230;-79
2022/01/07 02:55:20;;;;;;;25.67;11.27;;;4.70;99.90;;;;;;5046261;28;20245;-78
2022/01/07 02:57:47;;;;;;;21.07;11.57;;;4.70;99.90;;;;;;5052155;28;20223;-78
2022/01/07 03:00:16;;;;;;;21.73;10.63;;;4.70;99.90;;;;;;5051522;28;20421;-78
2022/01/07 03:02:44;;;;;;;24.60;10.40;;;4.70;99.90;;;;;;5071740;28;20302;-80
2022/01/07 03:05:12;;;;;;;21.17;10.20;;;4.80;99.90;;;;;;5045165;28;20216;-79
2022/01/07 03:07:40;;;;;;;21.77;10.60;;;4.70;99.90;;;;;;5069373;28;20716;-79
2022/01/07 03:10:08;;;;;;;19.17;9.50;;;4.80;99.90;;;;;;5053041;28;20641;-79
2022/01/07 03:12:37;;;;;;;27.40;10.53;;;4.80;99.90;;;;;;5071070;28;20227;-79
2022/01/07 03:15:04;;;;;;;20.37;9.40;;;4.80;99.90;;;;;;5071492;28;20618;-79
2022/01/07 03:17:31;;;;;;;23.20;9.20;;;4.70;99.90;;;;;;5077943;28;20231;-78
2022/01/07 03:19:58;;;;;;;21.83;9.50;;;4.80;99.90;;;;;;5044714;28;20741;-79
2022/01/07 03:22:24;;;;;;;19.27;9.20;;;4.80;99.90;;;;;;5046951;28;20224;-79
2022/01/07 03:24:51;;;;;;;24.00;9.93;;;4.70;99.90;;;;;;5055807;28;20535;-79
2022/01/07 03:27:18;;;;;;;19.63;9.27;;;4.70;99.90;;;;;;5082161;28;20584;-79
2022/01/07 03:29:46;;;;;;;20.10;9.07;;;4.80;99.90;;;;;;5042505;28;20234;-79
2022/01/07 03:32:13;;;;;;;21.57;8.33;;;4.80;99.90;;;;;;5047135;28;20737;-79
2022/01/07 03:34:39;;;;;;;21.90;9.10;;;4.80;99.90;;;;;;5048981;28;20944;-79
2022/01/07 03:37:06;;;;;;;20.27;8.77;;;4.80;99.90;;;;;;5072457;28;20232;-79
2022/01/07 03:39:33;;;;;;;18.57;8.77;;;4.80;99.90;;;;;;5053971;28;20219;-79
2022/01/07 03:41:59;;;;;;;18.33;8.90;;;4.80;99.90;;;;;;5068591;28;20333;-80
2022/01/07 03:44:26;;;;;;;19.10;7.80;;;4.80;99.90;;;;;;5070113;28;20286;-80
2022/01/07 03:46:54;;;;;;;17.73;8.07;;;4.80;99.90;;;;;;5064052;28;20659;-79
2022/01/07 03:49:21;;;;;;;18.23;8.20;;;4.80;99.90;;;;;;5051956;28;20228;-79
2022/01/07 03:51:48;;;;;;;16.00;8.03;;;4.80;99.90;;;;;;5053453;28;20248;-79
2022/01/07 03:54:15;;;;;;;22.50;8.40;;;4.80;99.90;;;;;;5073262;28;20214;-79
2022/01/07 03:56:41;;;;;;;21.20;7.87;;;4.80;99.90;;;;;;5052826;28;20230;-79
2022/01/07 03:59:08;;;;;;;19.93;8.43;;;4.90;99.90;;;;;;5052210;28;20225;-79
2022/01/07 04:01:35;;;;;;;18.17;8.13;;;4.90;99.90;;;;;;5047637;28;20939;-79
2022/01/07 04:04:03;;;;;;;18.10;7.70;;;4.90;99.90;;;;;;5054505;28;20221;-79
2022/01/07 04:06:30;;;;;;;17.43;7.10;;;4.90;99.90;;;;;;5052603;28;20353;-79
2022/01/07 04:08:57;;;;;;;12.93;7.33;;;4.90;99.90;;;;;;5042406;28;20215;-79
2022/01/07 04:11:25;;;;;;;16.70;7.17;;;4.90;99.90;;;;;;5064896;28;20235;-79
2022/01/07 04:13:51;;;;;;;15.43;6.73;;;4.90;99.90;;;;;;5043449;28;20226;-79
2022/01/07 04:16:18;;;;;;;19.57;6.73;;;4.90;99.90;;;;;;5065633;28;20220;-79
2022/01/07 04:18:45;;;;;;;17.67;6.30;;;4.90;99.90;;;;;;5045157;28;20720;-79
2022/01/07 04:21:13;;;;;;;20.10;7.00;;;4.90;99.90;;;;;;5071940;28;20214;-80
2022/01/07 04:23:41;;;;;;;17.60;6.83;;;4.90;99.90;;;;;;5038889;28;20663;-80
2022/01/07 04:26:07;;;;;;;15.37;6.37;;;4.90;99.90;;;;;;5052890;28;20229;-79
2022/01/07 04:28:34;;;;;;;12.53;5.70;;;4.90;99.90;;;;;;5045778;28;20244;-79
2022/01/07 04:31:01;;;;;;;12.63;6.00;;;4.90;99.90;;;;;;5043054;28;20599;-80
2022/01/07 04:33:32;;;;;;;15.03;5.63;;;5.00;99.90;;;;;;5058813;28;20207;-79
2022/01/07 04:35:59;;;;;;;11.47;5.37;;;4.90;99.90;;;;;;5060369;28;20583;-80
2022/01/07 04:38:27;;;;;;;13.47;5.10;;;5.00;99.90;;;;;;5067852;28;20235;-80
2022/01/07 04:40:54;;;;;;;15.80;4.97;;;5.00;99.90;;;;;;5071883;28;20216;-79
2022/01/07 04:43:21;;;;;;;12.17;5.40;;;5.00;99.90;;;;;;5048952;28;20945;-79
2022/01/07 04:45:47;;;;;;;10.80;4.53;;;5.10;99.90;;;;;;5049844;28;20235;-79
2022/01/07 04:48:14;;;;;;;10.60;5.47;;;5.10;99.90;;;;;;5071652;28;20224;-79
2022/01/07 04:50:41;;;;;;;12.87;4.73;;;5.10;99.90;;;;;;5043658;28;20230;-79
2022/01/07 04:53:08;;;;;;;14.03;5.33;;;5.10;99.90;;;;;;5057030;28;21016;-79
2022/01/07 04:55:37;;;;;;;12.07;5.30;;;5.10;99.90;;;;;;5048726;28;20235;-78
2022/01/07 04:58:07;;;;;;;12.00;4.83;;;5.10;99.90;;;;;;5051175;28;20703;-79
2022/01/07 05:00:34;;;;;;;14.43;5.80;;;5.10;99.90;;;;;;5042880;28;20676;-78
2022/01/07 05:03:01;;;;;;;13.70;5.83;;;5.00;99.90;;;;;;5069333;28;20223;-79
2022/01/07 05:05:28;;;;;;;14.67;5.60;;;5.00;99.90;;;;;;5065590;28;20218;-79
2022/01/07 05:07:55;;;;;;;10.57;5.30;;;5.00;99.90;;;;;;5049738;28;20221;-79
2022/01/07 05:10:24;;;;;;;11.73;5.47;;;5.00;99.90;;;;;;5066912;28;20305;-79
2022/01/07 05:12:52;;;;;;;13.13;5.47;;;4.90;99.90;;;;;;5060670;28;21020;-77
2022/01/07 05:15:19;;;;;;;11.60;5.33;;;4.90;99.90;;;;;;5063244;28;20221;-78
2022/01/07 05:17:47;;;;;;;13.10;5.87;;;4.80;99.90;;;;;;5067145;28;20211;-78
2022/01/07 05:20:15;;;;;;;19.20;6.60;;;4.80;99.90;;;;;;5075123;28;20230;-79
2022/01/07 05:22:42;;;;;;;16.80;6.60;;;4.80;99.90;;;;;;5072363;28;20222;-78
2022/01/07 05:25:11;;;;;;;51.40;8.60;;;4.70;99.90;;;;;;5068705;28;20223;-80
2022/01/07 05:27:38;;;;;;;16.23;6.10;;;4.70;99.90;;;;;;5066853;28;20913;-78
2022/01/07 05:30:09;;;;;;;36.77;7.13;;;4.70;99.90;;;;;;5044518;28;20225;-78
2022/01/07 05:32:35;;;;;;;35.27;7.40;;;4.60;99.90;;;;;;5043869;28;20258;-79
2022/01/07 05:35:02;;;;;;;37.53;7.17;;;4.60;99.90;;;;;;5043291;28;20227;-79
2022/01/07 05:37:29;;;;;;;37.83;7.37;;;4.60;99.90;;;;;;5056409;28;20235;-79
2022/01/07 05:39:57;;;;;;;17.63;6.60;;;4.60;99.90;;;;;;5070752;28;20207;-79
2022/01/07 05:42:24;;;;;;;16.70;6.03;;;4.60;99.90;;;;;;5052306;28;20245;-79
2022/01/07 05:44:50;;;;;;;16.00;6.00;;;4.60;99.90;;;;;;5070826;28;20223;-79
2022/01/07 05:47:19;;;;;;;12.90;6.10;;;4.60;99.90;;;;;;5043499;28;20302;-79
2022/01/07 05:49:45;;;;;;;20.90;6.97;;;4.60;99.90;;;;;;5051439;28;20230;-80
2022/01/07 05:52:12;;;;;;;17.40;6.57;;;4.60;99.90;;;;;;5068993;28;20222;-79
2022/01/07 05:54:39;;;;;;;14.63;6.30;;;4.60;99.90;;;;;;5070124;28;20225;-80
2022/01/07 05:57:06;;;;;;;16.07;6.77;;;4.60;99.90;;;;;;5069376;28;20314;-80
2022/01/07 05:59:33;;;;;;;30.67;7.30;;;4.60;99.90;;;;;;5048181;28;20241;-79
2022/01/07 06:02:00;;;;;;;23.90;7.27;;;4.50;99.90;;;;;;5068829;28;20231;-80
2022/01/07 06:04:28;;;;;;;14.30;6.53;;;4.50;99.90;;;;;;5074425;28;20622;-80
2022/01/07 06:06:55;;;;;;;15.37;6.17;;;4.50;99.90;;;;;;5074707;28;20234;-80
2022/01/07 06:09:22;;;;;;;15.90;7.40;;;4.50;99.90;;;;;;5046602;28;20229;-80
2022/01/07 06:11:48;;;;;;;16.67;6.90;;;4.40;99.90;;;;;;5065759;28;20210;-79
2022/01/07 06:14:15;;;;;;;22.33;7.43;;;4.40;99.90;;;;;;5050330;28;20257;-80
2022/01/07 06:16:42;;;;;;;17.60;7.27;;;4.40;99.90;;;;;;5073201;28;20235;-79
2022/01/07 06:19:08;;;;;;;16.17;6.93;;;4.40;99.90;;;;;;5060151;28;20223;-81
2022/01/07 06:21:36;;;;;;;39.93;8.57;;;4.40;99.90;;;;;;5054338;28;20223;-81
2022/01/07 06:24:03;;;;;;;17.17;7.73;;;4.40;99.90;;;;;;5048592;28;20628;-81
2022/01/07 06:26:31;;;;;;;18.67;6.63;;;4.30;99.90;;;;;;5052997;28;20228;-82
2022/01/07 06:28:58;;;;;;;17.63;6.80;;;4.40;99.90;;;;;;5064469;28;20278;-81
2022/01/07 06:31:25;;;;;;;16.07;6.63;;;4.30;99.90;;;;;;5054433;28;20224;-81
2022/01/07 06:33:51;;;;;;;15.43;6.63;;;4.30;99.90;;;;;;5053157;28;20698;-81
2022/01/07 06:36:18;;;;;;;11.63;6.17;;;4.30;99.90;;;;;;5070303;28;20211;-82
2022/01/07 06:38:46;;;;;;;23.50;6.67;;;4.30;99.90;;;;;;5053905;28;20226;-81
2022/01/07 06:41:13;;;;;;;15.80;6.70;;;4.30;99.90;;;;;;5051300;28;20219;-81
2022/01/07 06:43:40;;;;;;;16.07;6.40;;;4.30;99.90;;;;;;5058389;28;20220;-81
2022/01/07 06:46:08;;;;;;;15.43;7.37;;;4.20;99.90;;;;;;5046287;28;20225;-81
2022/01/07 06:48:35;;;;;;;26.90;7.10;;;4.30;99.90;;;;;;5050686;28;20314;-81
2022/01/07 06:51:02;;;;;;;17.43;7.03;;;4.30;99.90;;;;;;5055829;28;20332;-81
2022/01/07 06:53:30;;;;;;;19.53;7.23;;;4.30;99.90;;;;;;5060484;28;20513;-81
2022/01/07 06:55:59;;;;;;;24.83;7.17;;;4.30;99.90;;;;;;5044571;28;20308;-81
2022/01/07 06:58:25;;;;;;;26.10;7.40;;;4.30;99.90;;;;;;5055237;28;20368;-82
2022/01/07 07:00:52;;;;;;;18.13;6.60;;;4.30;99.90;;;;;;5045221;28;20226;-82
2022/01/07 07:03:19;;;;;;;16.30;6.57;;;4.30;99.90;;;;;;5050834;28;20225;-81
2022/01/07 07:05:46;;;;;;;15.77;6.93;;;4.30;99.90;;;;;;5052036;28;20450;-81
2022/01/07 07:08:13;;;;;;;19.13;6.67;;;4.20;99.90;;;;;;5052210;28;20590;-81
2022/01/07 07:10:39;;;;;;;28.87;7.73;;;4.20;99.90;;;;;;5050184;28;20223;-81
2022/01/07 07:13:07;;;;;;;17.40;6.70;;;4.30;99.90;;;;;;5063570;28;20220;-81
2022/01/07 07:15:34;;;;;;;55.80;8.83;;;4.20;99.90;;;;;;5047252;28;20230;-81
2022/01/07 07:18:01;;;;;;;21.80;7.47;;;4.20;99.90;;;;;;5066280;28;20218;-80
2022/01/07 07:20:28;;;;;;;21.87;7.30;;;4.20;99.90;;;;;;5068697;28;20235;-81
2022/01/07 07:22:54;;;;;;;15.67;7.30;;;4.20;99.90;;;;;;5058677;28;20789;-82
2022/01/07 07:25:23;;;;;;;11.87;6.80;;;4.20;99.90;;;;;;5054290;28;20305;-81
2022/01/07 07:27:50;;;;;;;20.10;7.57;;;4.20;99.90;;;;;;5054490;28;20263;-82
2022/01/07 07:30:19;;;;;;;147.07;14.20;;;4.20;99.90;;;;;;5049298;28;20253;-82
2022/01/07 07:32:47;;;;;;;28.23;8.03;;;4.20;99.90;;;;;;5050888;28;20219;-82
2022/01/07 07:37:55;;;;;;;21.57;7.73;;;4.30;99.90;;;;;;5049795;28;20225;-81
2022/01/07 07:40:21;;;;;;;58.37;8.53;;;4.30;99.90;;;;;;5070445;28;20207;-82
2022/01/07 07:42:48;;;;;;;20.27;7.83;;;4.30;99.90;;;;;;5068147;28;20228;-82
2022/01/07 07:45:20;;;;;;;16.10;6.50;;;4.30;99.90;;;;;;5050526;28;20212;-82
2022/01/07 07:47:47;;;;;;;19.43;6.73;;;4.30;99.90;;;;;;5050922;28;20656;-82
2022/01/07 07:50:14;;;;;;;15.97;6.70;;;4.30;99.90;;;;;;5048455;28;20718;-82
2022/01/07 07:52:41;;;;;;;16.13;7.17;;;4.40;99.90;;;;;;5075665;28;20218;-81
2022/01/07 07:55:08;;;;;;;22.53;7.33;;;4.40;99.90;;;;;;5050298;28;20307;-84
2022/01/07 07:57:35;;;;;;;20.87;6.77;;;4.40;99.90;;;;;;5043093;28;20235;-81
2022/01/07 08:00:03;;;;;;;14.43;7.00;;;4.40;99.90;;;;;;5069202;28;20214;-81
2022/01/07 08:02:41;;;;;;;12.17;7.00;;;4.40;99.90;;;;;;5063369;28;20232;-81
2022/01/07 08:05:09;;;;;;;14.57;7.27;;;4.50;99.90;;;;;;5046897;28;20215;-81
2022/01/07 08:07:36;;;;;;;17.27;7.53;;;4.50;99.90;;;;;;5069896;28;20711;-82
2022/01/07 08:10:03;;;;;;;12.77;6.83;;;4.50;99.90;;;;;;5048611;28;20306;-82
2022/01/07 08:12:51;;;;;;;11.10;6.73;;;4.50;99.90;;;;;;5045618;28;20235;-81
2022/01/07 08:18:02;;;;;;;29.73;8.50;;;4.60;99.90;;;;;;5045477;28;20213;-81
2022/01/07 08:20:28;;;;;;;14.93;7.37;;;4.60;99.90;;;;;;5051906;28;20226;-81
2022/01/07 08:22:56;;;;;;;23.63;7.90;;;4.70;99.90;;;;;;5068108;28;20300;-81
2022/01/07 08:25:24;;;;;;;15.07;6.90;;;4.60;99.90;;;;;;5050904;28;20226;-81
2022/01/07 08:27:51;;;;;;;16.23;7.43;;;4.60;99.90;;;;;;5044717;28;20699;-81
2022/01/07 08:30:23;;;;;;;9.40;6.67;;;4.60;99.90;;;;;;5063765;28;20858;-81
2022/01/07 08:35:38;;;;;;;11.10;6.87;;;4.70;99.90;;;;;;5047388;28;20226;-80
2022/01/07 08:38:05;;;;;;;10.53;7.30;;;4.70;99.90;;;;;;5066149;28;20249;-80
2022/01/07 08:40:32;;;;;;;12.60;7.10;;;4.70;99.90;;;;;;5044017;28;20239;-80
2022/01/07 08:42:58;;;;;;;10.70;6.97;;;4.80;99.90;;;;;;5060329;28;20227;-79
2022/01/07 08:45:26;;;;;;;11.90;6.70;;;4.80;99.90;;;;;;5039088;28;20224;-79
2022/01/07 08:47:52;;;;;;;13.60;6.87;;;4.80;99.90;;;;;;5042863;28;20229;-79
2022/01/07 08:50:19;;;;;;;9.70;6.53;;;4.80;99.90;;;;;;5075192;28;20302;-80
2022/01/07 08:52:47;;;;;;;12.43;6.37;;;4.80;99.90;;;;;;5043729;28;20219;-80
2022/01/07 08:55:14;;;;;;;10.17;6.90;;;4.80;99.90;;;;;;5040351;28;20231;-80
2022/01/07 08:57:41;;;;;;;13.53;7.63;;;4.80;99.90;;;;;;5044276;28;20224;-80
2022/01/07 09:00:09;;;;;;;11.10;6.67;;;4.80;99.90;;;;;;5068767;28;20215;-80
2022/01/07 09:02:35;;;;;;;30.77;8.00;;;4.80;99.90;;;;;;5046231;28;20249;-80
2022/01/07 09:05:02;;;;;;;11.47;6.73;;;4.80;99.90;;;;;;5048875;28;20233;-80
2022/01/07 09:07:29;;;;;;;23.57;7.53;;;4.80;99.90;;;;;;5064238;28;20242;-80
2022/01/07 09:09:57;;;;;;;11.83;6.67;;;4.70;99.90;;;;;;5048140;28;20313;-80
2022/01/07 09:12:23;;;;;;;9.13;6.63;;;4.70;99.90;;;;;;5043288;28;20208;-80
2022/01/07 09:14:50;;;;;;;23.07;7.30;;;4.70;99.90;;;;;;5054484;28;20219;-78
2022/01/07 09:17:17;;;;;;;13.13;6.97;;;4.70;99.90;;;;;;5043979;28;20221;-78
2022/01/07 09:19:44;;;;;;;14.23;7.07;;;4.70;99.90;;;;;;5041450;28;20223;-78
2022/01/07 09:22:10;;;;;;;15.47;7.80;;;4.60;99.90;;;;;;5043386;28;20242;-78
2022/01/07 09:24:37;;;;;;;14.67;7.33;;;4.60;99.90;;;;;;5052318;28;20236;-78
2022/01/07 09:27:05;;;;;;;42.23;8.73;;;4.60;99.90;;;;;;5047360;28;20679;-78
2022/01/07 09:29:32;;;;;;;10.50;7.23;;;4.60;99.90;;;;;;5066921;28;20215;-78
2022/01/07 09:31:59;;;;;;;23.63;8.03;;;4.60;99.90;;;;;;5071876;28;20221;-78
2022/01/07 09:34:25;;;;;;;18.77;7.67;;;4.60;99.90;;;;;;5076848;28;20225;-78
2022/01/07 09:36:52;;;;;;;13.07;7.37;;;4.60;99.90;;;;;;5060094;28;20778;-78
2022/01/07 09:39:19;;;;;;;12.47;7.33;;;4.60;99.90;;;;;;5079910;28;20205;-78
2022/01/07 09:41:46;;;;;;;15.67;7.83;;;4.60;99.90;;;;;;5078691;28;20242;-78
2022/01/07 09:44:14;;;;;;;12.57;7.50;;;4.60;99.90;;;;;;5056109;28;20243;-77
2022/01/07 09:46:41;;;;;;;13.73;7.70;;;4.60;99.90;;;;;;5044222;28;20780;-78
2022/01/07 09:49:09;;;;;;;13.30;7.67;;;4.60;99.90;;;;;;5046098;28;20268;-78
2022/01/07 09:51:38;;;;;;;11.77;7.53;;;4.60;99.90;;;;;;5052365;28;20232;-78
2022/01/07 09:54:06;;;;;;;11.40;7.50;;;4.60;99.90;;;;;;5044644;28;20307;-77
2022/01/07 09:56:32;;;;;;;13.67;7.90;;;4.70;99.90;;;;;;5047122;28;20233;-77
2022/01/07 09:59:01;;;;;;;15.00;7.90;;;4.60;99.90;;;;;;5067502;28;20213;-77
2022/01/07 10:01:29;;;;;;;10.57;7.73;;;4.70;99.90;;;;;;5069733;28;20969;-77
2022/01/07 10:03:56;;;;;;;9.53;7.40;;;4.70;99.90;;;;;;5050739;28;20754;-77
2022/01/07 10:06:24;;;;;;;11.40;7.70;;;4.60;99.90;;;;;;5070635;28;20242;-77
2022/01/07 10:09:02;;;;;;;12.17;7.63;;;4.60;99.90;;;;;;5057032;28;20769;-77
2022/01/07 10:11:29;;;;;;;10.00;6.93;;;4.70;99.90;;;;;;5053461;28;20228;-77
2022/01/07 10:14:15;;;;;;;11.83;8.10;;;4.70;99.90;;;;;;5072460;28;20227;-77
2022/01/07 10:16:50;;;;;;;19.03;8.50;;;4.60;99.90;;;;;;5068166;28;20221;-77
2022/01/07 10:19:33;;;;;;;18.77;7.90;;;4.70;99.90;;;;;;5043075;28;20221;-77
2022/01/07 10:22:01;;;;;;;15.67;8.23;;;4.70;99.90;;;;;;5036403;28;20226;-77
2022/01/07 10:24:28;;;;;;;275.70;28.07;;;4.70;99.90;;;;;;5045765;28;20579;-77
2022/01/07 10:27:14;;;;;;;14.40;8.03;;;4.80;99.90;;;;;;5042252;28;20222;-76
2022/01/07 10:29:43;;;;;;;12.10;7.97;;;4.80;99.90;;;;;;5067394;28;20212;-76
2022/01/07 10:32:25;;;;;;;10.67;7.93;;;4.80;99.90;;;;;;5047973;28;20241;-76
2022/01/07 10:35:02;;;;;;;14.73;8.20;;;4.80;99.90;;;;;;5069820;28;22360;-76
2022/01/07 10:37:29;;;;;;;15.07;7.80;;;4.80;99.90;;;;;;5056812;28;20231;-77
2022/01/07 10:39:56;;;;;;;12.83;8.20;;;4.90;99.90;;;;;;5067421;28;20231;-77
2022/01/07 10:42:23;;;;;;;15.47;8.53;;;4.90;99.90;;;;;;5042476;28;20221;-77
2022/01/07 10:45:00;;;;;;;13.60;8.63;;;4.90;99.90;;;;;;5046594;28;20217;-77
2022/01/07 10:47:29;;;;;;;12.07;8.77;;;4.90;99.90;;;;;;5047123;28;20235;-77
2022/01/07 10:50:15;;;;;;;12.57;8.43;;;5.00;99.90;;;;;;5045613;28;20955;-77
2022/01/07 10:52:43;;;;;;;12.87;8.67;;;5.00;99.90;;;;;;5063118;28;20213;-77
2022/01/07 10:55:11;;;;;;;12.37;8.37;;;5.00;99.90;;;;;;5043930;28;20319;-77
2022/01/07 10:57:39;;;;;;;43.53;10.43;;;5.10;99.90;;;;;;5061547;28;20229;-77
2022/01/07 11:00:11;;;;;;;15.77;8.07;;;5.10;99.90;;;;;;5068515;28;20207;-77
2022/01/07 11:02:40;;;;;;;11.30;9.10;;;5.10;99.90;;;;;;5035430;28;20226;-77
2022/01/07 11:05:08;;;;;;;21.67;9.30;;;5.20;99.90;;;;;;5042571;28;20228;-77
2022/01/07 11:07:36;;;;;;;13.10;8.57;;;5.20;99.90;;;;;;5058216;28;20235;-77
2022/01/07 11:10:04;;;;;;;10.37;8.50;;;5.20;99.90;;;;;;5075386;28;20219;-77
2022/01/07 11:12:32;;;;;;;10.47;8.77;;;5.30;99.90;;;;;;5040553;28;20325;-77
2022/01/07 11:14:59;;;;;;;11.43;9.00;;;5.30;99.90;;;;;;5065484;28;20217;-77
2022/01/07 11:17:27;;;;;;;9.80;8.20;;;5.30;99.90;;;;;;5072677;28;20842;-78
2022/01/07 11:19:56;;;;;;;12.10;8.03;;;5.40;99.90;;;;;;5070471;28;20226;-77
2022/01/07 11:22:24;;;;;;;12.37;8.07;;;5.40;99.90;;;;;;5074007;28;20211;-77
2022/01/07 11:24:54;;;;;;;9.53;8.53;;;5.40;99.90;;;;;;5070806;28;20225;-77
2022/01/07 11:27:25;;;;;;;14.37;8.70;;;5.40;99.90;;;;;;5064542;28;20283;-78
2022/01/07 11:30:11;;;;;;;11.10;8.70;;;5.50;99.90;;;;;;5045039;28;20291;-77
2022/01/07 11:32:39;;;;;;;31.07;10.57;;;5.40;99.90;;;;;;5056644;28;20232;-78
2022/01/07 11:35:49;;;;;;;10.70;9.07;;;5.40;99.90;;;;;;5049884;28;20764;-78
2022/01/07 11:38:32;;;;;;;11.70;9.63;;;5.50;99.90;;;;;;5049590;28;20235;-78
2022/01/07 11:40:59;;;;;;;11.67;9.10;;;5.50;99.90;;;;;;5045842;28;20795;-78
2022/01/07 11:43:31;;;;;;;15.83;10.33;;;5.50;99.90;;;;;;5052273;28;20230;-78
2022/01/07 11:45:59;;;;;;;14.40;10.27;;;5.50;99.90;;;;;;5067186;28;20219;-78
2022/01/07 11:48:30;;;;;;;27.97;11.00;;;5.50;99.90;;;;;;5043180;28;20224;-79
2022/01/07 11:51:14;;;;;;;13.47;9.43;;;5.50;99.90;;;;;;5037059;28;20214;-77
2022/01/07 11:54:06;;;;;;;16.13;10.50;;;5.60;99.90;;;;;;5043373;28;20249;-77
2022/01/07 11:56:34;;;;;;;14.40;11.00;;;5.60;99.90;;;;;;5061535;28;20228;-77
2022/01/07 11:59:13;;;;;;;16.10;11.10;;;5.60;99.90;;;;;;5047194;28;20223;-77
2022/01/07 12:01:41;;;;;;;15.50;11.20;;;5.60;99.90;;;;;;5037812;28;20223;-77
2022/01/07 12:04:27;;;;;;;26.07;12.60;;;5.70;99.90;;;;;;5048571;28;20221;-77
2022/01/07 12:06:55;;;;;;;70.13;14.53;;;5.70;99.90;;;;;;5069444;28;20226;-77
2022/01/07 12:09:29;;;;;;;16.10;12.00;;;5.80;99.90;;;;;;5060678;28;20226;-77
2022/01/07 12:11:59;;;;;;;17.10;12.13;;;5.80;99.90;;;;;;5069844;28;20216;-77
2022/01/07 12:14:28;;;;;;;22.03;13.67;;;5.80;99.90;;;;;;5072487;28;20223;-77
2022/01/07 12:16:58;;;;;;;18.50;13.13;;;5.90;99.90;;;;;;5050911;28;20225;-77
2022/01/07 12:20:02;;;;;;;17.90;13.73;;;5.90;99.90;;;;;;5040393;28;20225;-76
2022/01/07 12:22:29;;;;;;;18.00;13.60;;;5.90;99.90;;;;;;5040426;28;20240;-77
2022/01/07 12:25:02;;;;;;;20.70;14.10;;;6.00;99.90;;;;;;5057413;28;20642;-78
2022/01/07 12:27:29;;;;;;;18.13;13.20;;;6.00;99.90;;;;;;5052048;28;20225;-78
2022/01/07 12:29:58;;;;;;;19.27;14.10;;;6.00;99.90;;;;;;5060267;28;20894;-77
2022/01/07 12:32:33;;;;;;;20.13;14.27;;;6.10;99.90;;;;;;5069705;28;20242;-77
2022/01/07 12:35:02;;;;;;;19.63;13.53;;;6.20;99.90;;;;;;5064023;28;21015;-76
2022/01/07 12:37:28;;;;;;;26.20;14.67;;;6.10;99.90;;;;;;5057058;28;20255;-77
2022/01/07 12:39:57;;;;;;;20.33;14.40;;;6.20;99.90;;;;;;5067446;28;20217;-79
2022/01/07 12:42:26;;;;;;;21.87;14.60;;;6.20;99.90;;;;;;5062219;28;20235;-76
2022/01/07 12:44:57;;;;;;;21.17;14.23;;;6.20;99.90;;;;;;5053310;28;20232;-76
2022/01/07 12:47:26;;;;;;;19.40;14.20;;;6.30;99.90;;;;;;5061528;28;20225;-76
2022/01/07 12:49:55;;;;;;;21.63;15.07;;;6.30;99.90;;;;;;5060040;28;20222;-76
2022/01/07 12:52:23;;;;;;;20.43;14.23;;;6.30;99.90;;;;;;5058161;28;20208;-76
2022/01/07 12:54:55;;;;;;;25.40;14.93;;;6.30;99.90;;;;;;5053690;28;20232;-76
2022/01/07 12:57:32;;;;;;;22.57;15.20;;;6.30;99.90;;;;;;5039796;28;20302;-82